Terminal Aerodrome Forecast
Issued by NWS Wichita, KS

Home | Current Version | Previous Version | Graphics & Text | Print | Product List | Glossary On
Versions: 1 2 3 4 5 6 7 8 9 10 11 12 13 14 15
000
FTUS43 KICT 140500
TAFICT
TAF
KICT 140522Z 1406/1506 15007KT P6SM BKN200
     FM141500 17014G20KT P6SM BKN200
     FM150100 16010KT P6SM OVC100=

USA.gov is the U.S. government's official web portal to all federal, state and local government web resources and services.